createdAt,value
2023-02-26T00:01:00.656Z,43.40
2023-02-26T00:03:27.445Z,42.70
2023-02-26T00:05:54.113Z,42.80
2023-02-26T00:08:20.666Z,42.10
2023-02-26T00:10:47.854Z,42.70
2023-02-26T00:13:14.551Z,42.70
2023-02-26T00:15:41.190Z,42.70
2023-02-26T00:18:10.615Z,40.00
2023-02-26T00:20:37.397Z,39.60
2023-02-26T00:23:04.062Z,37.40
2023-02-26T00:25:30.623Z,36.30
2023-02-26T00:27:57.282Z,36.20
2023-02-26T00:30:23.872Z,36.60
2023-02-26T00:32:50.656Z,37.80
2023-02-26T00:35:17.325Z,37.80
2023-02-26T00:37:52.794Z,38.90
2023-02-26T00:40:22.645Z,40.50
2023-02-26T00:42:49.386Z,42.50
2023-02-26T00:45:16.130Z,43.10
2023-02-26T00:47:45.361Z,43.40
2023-02-26T00:50:25.214Z,45.00
2023-02-26T00:53:03.227Z,46.10
2023-02-26T00:55:30.238Z,44.80
2023-02-26T00:57:56.994Z,42.50
2023-02-26T01:00:23.801Z,42.50
2023-02-26T01:02:51.038Z,42.30
2023-02-26T01:05:18.115Z,42.90
2023-02-26T01:07:54.429Z,42.40
2023-02-26T01:10:21.260Z,42.20
2023-02-26T01:12:47.874Z,42.20
2023-02-26T01:15:14.818Z,42.20
2023-02-26T01:17:44.996Z,42.10
2023-02-26T01:20:16.898Z,42.20
2023-02-26T01:22:52.644Z,42.10
2023-02-26T01:25:22.236Z,42.10
2023-02-26T01:27:48.896Z,42.10
2023-02-26T01:30:15.718Z,41.40
2023-02-26T01:32:44.775Z,40.30
2023-02-26T01:35:17.550Z,40.10
2023-02-26T01:37:47.125Z,39.00
2023-02-26T01:40:25.944Z,40.00
2023-02-26T01:42:54.177Z,39.20
2023-02-26T01:45:23.899Z,38.00
2023-02-26T01:48:08.534Z,37.30
2023-02-26T01:50:36.375Z,38.00
2023-02-26T01:53:03.662Z,38.20
2023-02-26T01:55:30.427Z,38.20
2023-02-26T01:57:58.962Z,37.40
2023-02-26T02:00:25.762Z,38.60
2023-02-26T02:02:52.506Z,38.80
2023-02-26T02:05:27.205Z,39.10
2023-02-26T02:07:53.998Z,39.20
2023-02-26T02:10:20.813Z,38.70
2023-02-26T02:13:03.317Z,38.60
2023-02-26T02:15:29.844Z,38.30
2023-02-26T02:18:03.624Z,38.30
2023-02-26T02:20:45.539Z,38.10
2023-02-26T02:23:25.587Z,38.10
2023-02-26T02:25:58.038Z,40.20
2023-02-26T02:28:24.525Z,39.10
2023-02-26T02:31:06.987Z,39.10
2023-02-26T02:33:51.723Z,39.40
2023-02-26T02:36:28.684Z,40.00
2023-02-26T02:38:57.041Z,39.30
2023-02-26T02:41:26.624Z,38.80
2023-02-26T02:43:53.541Z,39.20
2023-02-26T02:46:23.559Z,39.90
2023-02-26T02:48:54.406Z,41.00
2023-02-26T02:51:26.925Z,41.40
2023-02-26T02:53:59.096Z,41.50
2023-02-26T02:56:28.711Z,41.40
2023-02-26T02:59:01.177Z,41.40
2023-02-26T03:01:28.341Z,42.00
2023-02-26T03:04:08.755Z,41.80
2023-02-26T03:06:35.619Z,44.50
2023-02-26T03:09:04.175Z,44.80
2023-02-26T03:11:31.389Z,44.40
2023-02-26T03:13:59.548Z,44.40
2023-02-26T03:16:32.136Z,44.00
2023-02-26T03:19:04.725Z,44.10
2023-02-26T03:21:42.221Z,44.80
2023-02-26T03:24:11.551Z,42.90
2023-02-26T03:26:46.727Z,42.70
2023-02-26T03:29:18.768Z,42.40
2023-02-26T03:31:48.223Z,43.70
2023-02-26T03:34:21.585Z,42.80
2023-02-26T03:36:51.569Z,42.60
2023-02-26T03:39:25.146Z,41.40
2023-02-26T03:41:51.669Z,41.40
2023-02-26T03:44:24.228Z,41.40
2023-02-26T03:46:53.769Z,41.30
2023-02-26T03:49:32.957Z,41.30
2023-02-26T03:52:00.541Z,41.20
2023-02-26T03:54:32.866Z,41.20
2023-02-26T03:56:59.730Z,41.20
2023-02-26T03:59:26.410Z,41.30
2023-02-26T04:02:11.530Z,41.90
2023-02-26T04:04:52.536Z,42.20
2023-02-26T04:07:19.624Z,41.70
2023-02-26T04:09:47.623Z,42.20
2023-02-26T04:12:14.599Z,43.00
2023-02-26T04:14:41.257Z,42.10
2023-02-26T04:17:07.748Z,43.30
2023-02-26T04:19:34.270Z,44.00
2023-02-26T04:22:00.789Z,45.90
2023-02-26T04:24:27.324Z,46.20
2023-02-26T04:26:53.839Z,46.40
2023-02-26T04:29:20.644Z,46.90
2023-02-26T04:31:47.811Z,47.60
2023-02-26T04:34:14.458Z,46.50
2023-02-26T04:36:41.427Z,46.20
2023-02-26T04:39:10.712Z,46.00
2023-02-26T04:41:38.041Z,46.20
2023-02-26T04:44:04.981Z,44.80
2023-02-26T04:46:31.759Z,44.30
2023-02-26T04:48:58.293Z,43.90
2023-02-26T04:51:25.031Z,43.30
2023-02-26T04:53:51.591Z,44.10
2023-02-26T04:56:18.159Z,43.00
2023-02-26T04:58:44.743Z,42.80
2023-02-26T05:01:13.529Z,41.40
2023-02-26T05:03:40.086Z,41.40
2023-02-26T05:06:06.800Z,42.20
2023-02-26T05:08:33.302Z,41.80
2023-02-26T05:10:59.855Z,41.50
2023-02-26T05:13:26.789Z,41.50
2023-02-26T05:15:53.942Z,41.40
2023-02-26T05:18:20.589Z,41.40
2023-02-26T05:20:51.594Z,41.50
2023-02-26T05:23:18.119Z,41.40
2023-02-26T05:25:44.650Z,41.40
2023-02-26T05:28:11.159Z,41.40
2023-02-26T05:30:37.763Z,41.60
2023-02-26T05:33:04.330Z,41.50
2023-02-26T05:35:30.837Z,41.60
2023-02-26T05:37:57.333Z,41.60
2023-02-26T05:40:23.851Z,41.50
2023-02-26T05:42:51.859Z,41.50
2023-02-26T05:45:18.435Z,42.80
2023-02-26T05:47:45.048Z,41.50
2023-02-26T05:50:11.796Z,43.40
2023-02-26T05:52:38.328Z,44.70
2023-02-26T05:55:05.287Z,44.70
2023-02-26T05:57:31.821Z,45.40
2023-02-26T05:59:58.318Z,46.70
2023-02-26T06:02:24.821Z,46.20
2023-02-26T06:04:51.315Z,45.80
2023-02-26T06:07:17.813Z,47.00
2023-02-26T06:09:44.348Z,47.90
2023-02-26T06:12:10.882Z,48.10
2023-02-26T06:14:37.395Z,49.10
2023-02-26T06:17:04.542Z,47.80
2023-02-26T06:19:31.171Z,47.10
2023-02-26T06:21:57.894Z,48.40
2023-02-26T06:24:24.415Z,49.50
2023-02-26T06:26:50.941Z,50.90
2023-02-26T06:29:18.542Z,50.40
2023-02-26T06:31:45.614Z,52.30
2023-02-26T06:34:12.190Z,50.10
2023-02-26T06:36:38.812Z,48.70
2023-02-26T06:39:05.466Z,48.20
2023-02-26T06:41:32.052Z,50.70
2023-02-26T06:43:58.550Z,49.40
2023-02-26T06:46:25.340Z,50.40
2023-02-26T06:48:52.021Z,47.90
2023-02-26T06:51:18.522Z,47.10
2023-02-26T06:53:45.008Z,48.60
2023-02-26T06:56:11.631Z,46.60
2023-02-26T06:58:38.705Z,45.00
2023-02-26T07:01:05.277Z,44.20
2023-02-26T07:03:31.870Z,44.60
2023-02-26T07:06:06.416Z,46.00
2023-02-26T07:08:40.642Z,42.70
2023-02-26T07:11:08.759Z,41.80
2023-02-26T07:13:36.759Z,38.40
2023-02-26T07:16:09.333Z,34.70
2023-02-26T07:18:37.227Z,31.70
2023-02-26T07:21:04.446Z,26.50
2023-02-26T07:23:31.368Z,22.70
2023-02-26T07:25:57.881Z,17.00
2023-02-26T07:28:24.505Z,12.80
2023-02-26T07:30:51.201Z,11.40
2023-02-26T07:33:18.030Z,10.00
2023-02-26T07:35:44.571Z,11.20
2023-02-26T07:38:11.194Z,11.00
2023-02-26T07:40:37.755Z,12.50
2023-02-26T07:43:04.455Z,14.40
2023-02-26T07:45:30.998Z,15.30
2023-02-26T07:47:57.555Z,15.30
2023-02-26T07:50:25.097Z,15.50
2023-02-26T07:52:53.239Z,15.30
2023-02-26T07:55:19.959Z,16.90
2023-02-26T07:57:46.794Z,16.70
2023-02-26T08:00:14.349Z,17.60
2023-02-26T08:02:41.268Z,17.50
2023-02-26T08:05:07.964Z,19.00
2023-02-26T08:07:34.542Z,18.90
2023-02-26T08:10:01.088Z,18.50
2023-02-26T08:12:27.601Z,15.70
2023-02-26T08:14:54.150Z,15.70
2023-02-26T08:17:20.708Z,13.40
2023-02-26T08:19:47.208Z,9.90
2023-02-26T08:22:14.150Z,4.50
2023-02-26T08:24:40.730Z,1.60
2023-02-26T08:27:07.251Z,1.70
2023-02-26T08:29:33.760Z,3.50
2023-02-26T08:32:00.383Z,5.10
2023-02-26T08:34:27.026Z,6.90
2023-02-26T08:36:53.514Z,9.50
2023-02-26T08:39:20.033Z,11.40
2023-02-26T08:41:46.538Z,12.10
2023-02-26T08:44:13.045Z,11.20
2023-02-26T08:46:39.721Z,11.20
2023-02-26T08:49:06.979Z,12.10
2023-02-26T08:51:33.552Z,12.40
2023-02-26T08:54:00.113Z,12.70
2023-02-26T08:56:27.104Z,13.70
2023-02-26T08:58:53.849Z,11.10
2023-02-26T09:01:20.474Z,12.30
2023-02-26T09:03:47.021Z,13.20
2023-02-26T09:06:13.501Z,12.20
2023-02-26T09:08:40.057Z,13.80
2023-02-26T09:11:06.718Z,5.50
2023-02-26T09:13:33.247Z,6.50
2023-02-26T09:15:59.766Z,6.70
2023-02-26T09:18:26.409Z,8.30
2023-02-26T09:20:52.980Z,6.40
2023-02-26T09:23:19.466Z,1.00
2023-02-26T09:25:46.133Z,1.00
2023-02-26T09:28:12.726Z,1.00
2023-02-26T09:30:39.319Z,1.00
2023-02-26T09:33:05.897Z,1.00
2023-02-26T09:35:32.439Z,1.00
2023-02-26T09:37:58.972Z,1.00
2023-02-26T09:40:42.659Z,1.00
2023-02-26T09:43:26.588Z,1.00
2023-02-26T09:45:55.166Z,1.00
2023-02-26T09:48:24.353Z,1.00
2023-02-26T09:50:52.891Z,1.00
2023-02-26T09:53:24.250Z,1.00
2023-02-26T09:55:52.004Z,1.00
2023-02-26T09:58:24.492Z,1.00
2023-02-26T10:01:00.104Z,1.00
2023-02-26T10:03:45.576Z,1.00
2023-02-26T10:06:21.418Z,1.00
2023-02-26T10:08:58.808Z,1.00
2023-02-26T10:11:36.849Z,1.00
2023-02-26T10:14:26.753Z,1.00
2023-02-26T10:16:56.403Z,1.00
2023-02-26T10:19:26.977Z,1.00
2023-02-26T10:21:56.352Z,1.00
2023-02-26T10:24:26.462Z,1.00
2023-02-26T10:26:56.624Z,1.00
2023-02-26T10:29:29.332Z,1.00
2023-02-26T10:32:02.970Z,1.00
2023-02-26T10:34:32.896Z,1.00
2023-02-26T10:37:08.603Z,1.00
2023-02-26T10:39:42.107Z,1.00
2023-02-26T10:42:17.286Z,1.00
2023-02-26T10:44:55.136Z,1.00
2023-02-26T10:47:39.149Z,1.00
2023-02-26T10:50:08.615Z,1.00
2023-02-26T10:52:36.265Z,1.00
2023-02-26T10:55:19.846Z,1.00
2023-02-26T10:58:05.347Z,1.00
2023-02-26T11:00:35.098Z,1.00
2023-02-26T11:03:02.934Z,1.00
2023-02-26T11:05:31.515Z,1.00
2023-02-26T11:08:01.134Z,1.00
2023-02-26T11:10:37.178Z,1.00
2023-02-26T11:13:04.276Z,1.00
2023-02-26T11:15:30.845Z,1.00
2023-02-26T11:17:58.350Z,1.00
2023-02-26T11:20:30.809Z,1.00
2023-02-26T11:22:59.553Z,1.00
2023-02-26T11:25:28.677Z,1.00
2023-02-26T11:28:00.979Z,1.00
2023-02-26T11:30:29.696Z,1.00
2023-02-26T11:32:57.954Z,1.00
2023-02-26T11:35:26.495Z,1.00
2023-02-26T11:37:59.821Z,1.00
2023-02-26T11:40:26.741Z,1.00
2023-02-26T11:42:54.900Z,1.00
2023-02-26T11:45:22.105Z,1.00
2023-02-26T11:47:49.837Z,1.00
2023-02-26T11:50:22.841Z,1.00
2023-02-26T11:52:55.856Z,1.00
2023-02-26T11:55:45.255Z,1.00
2023-02-26T11:58:17.332Z,1.00
2023-02-26T12:00:44.707Z,1.00
2023-02-26T12:03:20.158Z,1.00
2023-02-26T12:05:46.889Z,1.00
2023-02-26T12:08:19.203Z,1.00
2023-02-26T12:10:59.591Z,1.00
2023-02-26T12:13:35.270Z,1.00
2023-02-26T12:16:08.125Z,1.00
2023-02-26T12:18:40.557Z,1.00
2023-02-26T12:21:10.746Z,1.00
2023-02-26T12:23:57.911Z,1.00
2023-02-26T12:26:28.245Z,1.00
2023-02-26T12:28:54.812Z,1.00
2023-02-26T12:31:53.747Z,1.00
2023-02-26T12:34:27.226Z,1.00
2023-02-26T12:36:59.870Z,1.00
2023-02-26T12:39:26.461Z,1.00
2023-02-26T12:41:59.333Z,1.00
2023-02-26T12:44:25.815Z,1.00
2023-02-26T12:46:55.527Z,1.00
2023-02-26T12:49:25.031Z,1.00
2023-02-26T12:52:12.456Z,1.00
2023-02-26T12:54:40.490Z,1.00
2023-02-26T12:57:13.116Z,1.00
2023-02-26T12:59:55.111Z,1.00
2023-02-26T13:02:33.832Z,1.00
2023-02-26T13:05:13.861Z,1.00
2023-02-26T13:07:49.654Z,1.00
2023-02-26T13:10:16.543Z,1.00
2023-02-26T13:12:43.014Z,1.00
2023-02-26T13:15:15.572Z,1.00
2023-02-26T13:17:55.559Z,1.00
2023-02-26T13:20:24.057Z,1.00
2023-02-26T13:22:53.269Z,1.00
2023-02-26T13:25:24.759Z,1.00
2023-02-26T13:27:53.526Z,1.00
2023-02-26T13:30:25.193Z,1.00
2023-02-26T13:32:53.610Z,1.00
2023-02-26T13:35:20.189Z,1.00
2023-02-26T13:37:49.336Z,1.00
2023-02-26T13:40:34.870Z,1.00
2023-02-26T13:43:10.813Z,1.00
2023-02-26T13:45:55.964Z,1.00
2023-02-26T13:48:22.550Z,1.00
2023-02-26T13:50:49.039Z,1.00
2023-02-26T13:53:28.003Z,1.00
2023-02-26T13:55:55.302Z,1.00
2023-02-26T13:58:21.879Z,1.00
2023-02-26T14:01:08.964Z,1.00
2023-02-26T14:03:37.060Z,1.00
2023-02-26T14:06:06.610Z,1.00
2023-02-26T14:08:39.065Z,1.00
2023-02-26T14:11:17.823Z,1.00
2023-02-26T14:14:04.318Z,1.00
2023-02-26T14:16:34.276Z,1.00
2023-02-26T14:19:05.454Z,1.00
2023-02-26T14:21:31.972Z,1.00
2023-02-26T14:24:03.313Z,1.00
2023-02-26T14:26:32.602Z,1.00
2023-02-26T14:29:05.135Z,1.00
2023-02-26T14:31:53.761Z,1.00
2023-02-26T14:34:31.101Z,1.00
2023-02-26T14:36:59.047Z,1.00
2023-02-26T14:39:31.234Z,1.00
2023-02-26T14:41:59.785Z,1.00
2023-02-26T14:44:28.597Z,1.00
2023-02-26T14:46:55.629Z,1.00
2023-02-26T14:49:26.449Z,1.00
2023-02-26T14:51:58.910Z,1.00
2023-02-26T14:54:34.705Z,1.00
2023-02-26T14:57:12.837Z,1.00
2023-02-26T14:59:51.530Z,1.00
2023-02-26T15:02:36.791Z,1.00
2023-02-26T15:05:22.561Z,1.00
2023-02-26T15:08:14.025Z,1.00
2023-02-26T15:11:02.324Z,1.00
2023-02-26T15:13:31.880Z,1.00
2023-02-26T15:16:27.762Z,1.00
2023-02-26T15:19:15.461Z,1.00
2023-02-26T15:21:57.092Z,1.00
2023-02-26T15:24:23.855Z,1.00
2023-02-26T15:26:55.338Z,1.00
2023-02-26T15:29:25.489Z,1.00
2023-02-26T15:31:57.285Z,1.00
2023-02-26T15:34:24.315Z,1.00
2023-02-26T15:36:53.375Z,1.00
2023-02-26T15:39:23.257Z,1.00
2023-02-26T15:41:50.794Z,1.00
2023-02-26T15:44:38.629Z,1.00
2023-02-26T15:47:07.131Z,1.00
2023-02-26T15:49:35.424Z,1.00
2023-02-26T15:52:02.553Z,1.00
2023-02-26T15:54:49.493Z,1.00
2023-02-26T15:57:16.722Z,1.00
2023-02-26T15:59:44.417Z,1.00
2023-02-26T16:02:20.046Z,1.00
2023-02-26T16:04:46.602Z,1.00
2023-02-26T16:07:13.698Z,1.00
2023-02-26T16:09:41.649Z,1.00
2023-02-26T16:12:10.368Z,1.00
2023-02-26T16:14:38.379Z,1.00
2023-02-26T16:17:06.381Z,1.00
2023-02-26T16:19:37.962Z,1.00
2023-02-26T16:22:20.990Z,1.00
2023-02-26T16:24:51.008Z,1.00
2023-02-26T16:27:17.591Z,1.00
2023-02-26T16:29:49.903Z,1.00
2023-02-26T16:32:17.982Z,1.00
2023-02-26T16:34:55.392Z,1.00
2023-02-26T16:37:24.301Z,1.00
2023-02-26T16:39:58.168Z,1.00
2023-02-26T16:42:37.673Z,1.00
2023-02-26T16:45:28.472Z,1.00
2023-02-26T16:47:56.912Z,1.00
2023-02-26T16:50:28.028Z,1.00
2023-02-26T16:52:58.829Z,1.00
2023-02-26T16:55:26.242Z,1.00
2023-02-26T16:57:53.204Z,1.00
2023-02-26T17:00:30.866Z,1.00
2023-02-26T17:03:00.117Z,1.00
2023-02-26T17:05:29.648Z,1.00
2023-02-26T17:08:00.831Z,1.00
2023-02-26T17:10:35.434Z,1.00
2023-02-26T17:13:04.797Z,1.00
2023-02-26T17:15:34.324Z,1.00
2023-02-26T17:18:01.032Z,1.00
2023-02-26T17:20:29.217Z,1.00
2023-02-26T17:22:57.141Z,1.00
2023-02-26T17:25:33.779Z,1.00
2023-02-26T17:28:02.090Z,1.00
2023-02-26T17:30:32.546Z,1.00
2023-02-26T17:33:00.224Z,1.00
2023-02-26T17:35:26.784Z,1.00
2023-02-26T17:37:54.264Z,1.00
2023-02-26T17:40:23.925Z,1.00
2023-02-26T17:42:51.882Z,1.00
2023-02-26T17:45:20.035Z,1.00
2023-02-26T17:47:50.258Z,1.00
2023-02-26T17:50:36.469Z,1.00
2023-02-26T17:53:04.005Z,1.00
2023-02-26T17:55:30.571Z,1.00
2023-02-26T17:57:57.694Z,1.00
2023-02-26T18:00:24.435Z,1.00
2023-02-26T18:02:51.647Z,1.00
2023-02-26T18:05:19.394Z,1.00
2023-02-26T18:07:46.809Z,1.00
2023-02-26T18:10:21.358Z,1.00
2023-02-26T18:12:49.120Z,1.00
2023-02-26T18:15:15.896Z,1.00
2023-02-26T18:17:43.084Z,1.00
2023-02-26T18:20:15.469Z,1.00
2023-02-26T18:22:41.977Z,1.00
2023-02-26T18:25:09.401Z,1.00
2023-02-26T18:27:35.897Z,1.00
2023-02-26T18:30:04.653Z,1.00
2023-02-26T18:32:31.343Z,2.40
2023-02-26T18:34:57.963Z,1.00
2023-02-26T18:37:26.022Z,1.30
2023-02-26T18:39:52.949Z,2.00
2023-02-26T18:42:28.507Z,2.50
2023-02-26T18:44:55.431Z,3.40
2023-02-26T18:47:22.252Z,4.30
2023-02-26T18:49:49.700Z,4.30
2023-02-26T18:52:16.602Z,4.30
2023-02-26T18:54:43.270Z,4.30
2023-02-26T18:57:09.843Z,4.30
2023-02-26T18:59:36.652Z,4.30
2023-02-26T19:02:04.103Z,4.30
2023-02-26T19:04:30.943Z,4.80
2023-02-26T19:06:57.512Z,6.00
2023-02-26T19:09:24.088Z,5.30
2023-02-26T19:11:50.584Z,6.40
2023-02-26T19:14:17.172Z,6.00
2023-02-26T19:16:43.956Z,6.20
2023-02-26T19:19:12.575Z,6.20
2023-02-26T19:21:40.130Z,6.60
2023-02-26T19:24:08.133Z,7.70
2023-02-26T19:26:35.253Z,8.60
2023-02-26T19:29:02.329Z,9.80
2023-02-26T19:31:29.479Z,8.90
2023-02-26T19:33:56.425Z,9.30
2023-02-26T19:36:22.985Z,10.40
2023-02-26T19:38:50.015Z,10.60
2023-02-26T19:41:20.019Z,11.10
2023-02-26T19:43:47.503Z,11.30
2023-02-26T19:46:14.843Z,12.10
2023-02-26T19:48:41.630Z,11.50
2023-02-26T19:51:08.235Z,12.10
2023-02-26T19:53:35.556Z,12.40
2023-02-26T19:56:03.320Z,11.80
2023-02-26T19:58:30.873Z,11.50
2023-02-26T20:00:58.510Z,11.90
2023-02-26T20:03:25.367Z,11.20
2023-02-26T20:05:52.912Z,11.10
2023-02-26T20:08:20.309Z,11.90
2023-02-26T20:10:49.954Z,11.70
2023-02-26T20:13:17.172Z,12.20
2023-02-26T20:15:44.019Z,11.90
2023-02-26T20:18:10.709Z,10.80
2023-02-26T20:20:37.732Z,11.70
2023-02-26T20:23:04.343Z,12.00
2023-02-26T20:25:30.918Z,11.50
2023-02-26T20:27:57.454Z,10.70
2023-02-26T20:30:23.960Z,10.90
2023-02-26T20:32:50.668Z,10.60
2023-02-26T20:35:17.494Z,9.80
2023-02-26T20:37:44.179Z,10.30
2023-02-26T20:40:11.245Z,10.30
2023-02-26T20:42:37.773Z,10.10
2023-02-26T20:45:05.344Z,10.30
2023-02-26T20:47:31.889Z,10.30
2023-02-26T20:49:58.466Z,10.10
2023-02-26T20:52:25.046Z,9.80
2023-02-26T20:54:51.646Z,10.20
2023-02-26T20:57:18.177Z,10.50
2023-02-26T20:59:44.701Z,10.40
2023-02-26T21:02:12.719Z,10.60
2023-02-26T21:04:39.216Z,10.40
2023-02-26T21:07:21.875Z,11.00
2023-02-26T21:09:49.224Z,10.40
2023-02-26T21:12:17.311Z,12.20
2023-02-26T21:14:44.626Z,11.00
2023-02-26T21:17:11.126Z,11.70
2023-02-26T21:19:37.803Z,11.40
2023-02-26T21:22:04.365Z,11.30
2023-02-26T21:24:30.963Z,12.00
2023-02-26T21:26:57.537Z,11.90
2023-02-26T21:29:24.177Z,11.70
2023-02-26T21:31:53.966Z,12.60
2023-02-26T21:34:33.021Z,11.50
2023-02-26T21:37:01.782Z,12.70
2023-02-26T21:39:30.444Z,12.10
2023-02-26T21:41:59.143Z,13.00
2023-02-26T21:44:28.580Z,13.00
2023-02-26T21:46:57.282Z,13.00
2023-02-26T21:49:27.476Z,13.00
2023-02-26T21:51:54.050Z,13.00
2023-02-26T21:54:20.733Z,13.00
2023-02-26T21:56:47.211Z,13.00
2023-02-26T21:59:13.778Z,13.00
2023-02-26T22:01:40.705Z,13.00
2023-02-26T22:04:07.488Z,13.00
2023-02-26T22:06:34.464Z,13.00
2023-02-26T22:09:00.984Z,13.70
2023-02-26T22:11:27.860Z,14.40
2023-02-26T22:13:54.504Z,15.00
2023-02-26T22:16:21.166Z,14.90
2023-02-26T22:18:47.876Z,15.20
2023-02-26T22:21:14.475Z,15.10
2023-02-26T22:23:41.177Z,15.60
2023-02-26T22:26:07.770Z,15.70
2023-02-26T22:28:34.348Z,17.00
2023-02-26T22:31:01.546Z,16.60
2023-02-26T22:33:28.154Z,16.70
2023-02-26T22:35:58.083Z,17.70
2023-02-26T22:38:24.691Z,17.50
2023-02-26T22:40:51.405Z,18.30
2023-02-26T22:43:18.061Z,18.70
2023-02-26T22:45:44.708Z,19.00
2023-02-26T22:48:11.543Z,18.70
2023-02-26T22:50:38.093Z,18.70
2023-02-26T22:53:05.020Z,19.00
2023-02-26T22:55:31.534Z,19.20
2023-02-26T22:57:58.045Z,19.70
2023-02-26T23:00:24.572Z,19.80
2023-02-26T23:02:51.117Z,20.00
2023-02-26T23:05:19.450Z,20.30
2023-02-26T23:08:24.694Z,20.10
2023-02-26T23:10:54.134Z,20.50
2023-02-26T23:13:20.807Z,21.00
2023-02-26T23:15:47.457Z,21.80
2023-02-26T23:18:14.064Z,21.80
2023-02-26T23:20:41.249Z,21.80
2023-02-26T23:23:07.867Z,21.60
2023-02-26T23:25:34.430Z,21.80
2023-02-26T23:28:00.983Z,21.80
2023-02-26T23:30:28.150Z,21.80
2023-02-26T23:32:56.282Z,21.80
2023-02-26T23:35:23.114Z,21.70
2023-02-26T23:37:49.675Z,21.80
2023-02-26T23:40:16.416Z,21.80
2023-02-26T23:42:43.129Z,21.80
2023-02-26T23:45:10.485Z,21.90
2023-02-26T23:47:37.299Z,21.80
2023-02-26T23:50:04.630Z,21.90
2023-02-26T23:52:31.385Z,21.80
2023-02-26T23:54:58.171Z,22.50
2023-02-26T23:57:25.014Z,22.90
2023-02-26T23:59:51.623Z,22.60
